createdAt,value
2023-08-11T00:01:21.874Z,2.05
2023-08-11T00:04:07.632Z,2.20
2023-08-11T00:06:53.880Z,2.10
2023-08-11T00:09:39.692Z,2.08
2023-08-11T00:12:24.960Z,2.03
2023-08-11T00:15:10.974Z,2.20
2023-08-11T00:18:02.880Z,2.10
2023-08-11T00:20:48.094Z,2.20
2023-08-11T00:23:33.572Z,2.10
2023-08-11T00:26:19.293Z,2.50
2023-08-11T00:29:05.894Z,2.10
2023-08-11T00:31:51.429Z,2.05
2023-08-11T00:34:37.012Z,2.20
2023-08-11T00:37:22.333Z,1.90
2023-08-11T00:40:09.662Z,2.08
2023-08-11T00:42:54.932Z,1.98
2023-08-11T00:45:45.797Z,2.05
2023-08-11T00:48:30.926Z,2.30
2023-08-11T00:51:16.626Z,2.10
2023-08-11T00:54:02.495Z,1.92
2023-08-11T00:56:49.181Z,2.22
2023-08-11T00:59:34.506Z,2.08
2023-08-11T01:02:19.848Z,2.42
2023-08-11T01:05:06.751Z,2.47
2023-08-11T01:08:25.425Z,2.42
2023-08-11T01:11:29.075Z,2.25
2023-08-11T01:14:28.967Z,2.65
2023-08-11T01:17:17.497Z,2.50
2023-08-11T01:20:09.554Z,2.05
2023-08-11T01:23:01.115Z,2.83
2023-08-11T01:25:47.983Z,1.90
2023-08-11T01:28:35.614Z,2.30
2023-08-11T01:31:21.189Z,2.65
2023-08-11T01:34:06.754Z,2.22
2023-08-11T01:37:01.331Z,2.35
2023-08-11T01:39:46.592Z,2.30
2023-08-11T01:42:35.540Z,2.33
2023-08-11T01:45:24.007Z,2.22
2023-08-11T01:48:11.475Z,4.50
2023-08-11T01:50:57.025Z,1.83
2023-08-11T01:53:43.037Z,2.38
2023-08-11T01:56:29.197Z,2.30
2023-08-11T01:59:16.463Z,1.95
2023-08-11T02:02:01.854Z,2.53
2023-08-11T02:04:47.369Z,2.20
2023-08-11T02:07:33.384Z,2.60
2023-08-11T02:10:18.580Z,2.40
2023-08-11T02:13:04.049Z,2.55
2023-08-11T02:15:49.830Z,2.58
2023-08-11T02:18:35.244Z,3.08
2023-08-11T02:21:20.552Z,2.67
2023-08-11T02:24:06.428Z,2.50
2023-08-11T02:26:52.362Z,2.08
2023-08-11T02:29:38.165Z,2.63
2023-08-11T02:32:23.661Z,2.40
2023-08-11T02:35:10.930Z,2.53
2023-08-11T02:37:56.398Z,2.40
2023-08-11T02:40:41.859Z,2.22
2023-08-11T02:43:28.285Z,2.22
2023-08-11T02:46:13.478Z,2.78
2023-08-11T02:48:58.796Z,3.20
2023-08-11T02:51:45.285Z,2.75
2023-08-11T02:54:30.824Z,2.25
2023-08-11T02:57:16.367Z,2.90
2023-08-11T03:00:03.328Z,2.50
2023-08-11T03:02:49.152Z,2.90
2023-08-11T03:05:34.767Z,2.88
2023-08-11T03:08:20.101Z,2.40
2023-08-11T03:11:05.525Z,2.38
2023-08-11T03:13:51.058Z,2.42
2023-08-11T03:16:37.080Z,2.60
2023-08-11T03:19:22.480Z,2.45
2023-08-11T03:22:08.242Z,2.55
2023-08-11T03:24:53.553Z,2.33
2023-08-11T03:27:44.365Z,2.20
2023-08-11T03:30:30.680Z,2.20
2023-08-11T03:33:18.639Z,2.60
2023-08-11T03:36:04.121Z,3.88
2023-08-11T03:38:49.729Z,2.40
2023-08-11T03:41:35.173Z,2.20
2023-08-11T03:44:20.650Z,1.67
2023-08-11T03:47:06.651Z,2.58
2023-08-11T03:49:51.995Z,2.28
2023-08-11T03:52:38.164Z,2.17
2023-08-11T03:55:23.855Z,2.38
2023-08-11T03:58:09.223Z,2.50
2023-08-11T04:00:55.995Z,2.40
2023-08-11T04:03:41.649Z,2.10
2023-08-11T04:06:33.287Z,2.95
2023-08-11T04:09:19.006Z,2.30
2023-08-11T04:12:04.724Z,2.50
2023-08-11T04:14:50.164Z,2.33
2023-08-11T04:17:37.802Z,2.45
2023-08-11T04:20:23.639Z,2.40
2023-08-11T04:23:09.156Z,2.15
2023-08-11T04:25:55.000Z,2.08
2023-08-11T04:28:42.590Z,2.30
2023-08-11T04:31:28.074Z,2.50
2023-08-11T04:34:15.108Z,2.55
2023-08-11T04:37:01.640Z,3.20
2023-08-11T04:39:48.233Z,2.33
2023-08-11T04:42:33.925Z,2.20
2023-08-11T04:45:19.498Z,2.60
2023-08-11T04:48:05.123Z,2.33
2023-08-11T04:50:52.435Z,2.47
2023-08-11T04:53:38.063Z,2.70
2023-08-11T04:56:23.766Z,2.22
2023-08-11T04:59:08.952Z,2.17
2023-08-11T05:01:56.438Z,2.78
2023-08-11T05:04:41.821Z,2.30
2023-08-11T05:07:27.257Z,1.92
2023-08-11T05:10:13.132Z,2.90
2023-08-11T05:12:58.365Z,2.55
2023-08-11T05:15:43.773Z,2.30
2023-08-11T05:18:37.937Z,3.08
2023-08-11T05:21:28.451Z,2.63
2023-08-11T05:24:13.966Z,3.10
2023-08-11T05:26:59.433Z,2.50
2023-08-11T05:29:47.616Z,2.67
2023-08-11T05:32:32.890Z,2.40
2023-08-11T05:35:18.459Z,2.90
2023-08-11T05:38:04.164Z,3.00
2023-08-11T05:40:50.739Z,2.95
2023-08-11T05:43:37.468Z,3.45
2023-08-11T05:46:22.759Z,2.92
2023-08-11T05:49:08.270Z,2.47
2023-08-11T05:51:53.655Z,2.47
2023-08-11T05:54:38.980Z,2.65
2023-08-11T05:57:24.393Z,3.00
2023-08-11T06:00:10.592Z,2.65
2023-08-11T06:02:57.362Z,2.88
2023-08-11T06:05:42.986Z,2.65
2023-08-11T06:08:29.502Z,2.90
2023-08-11T06:11:14.924Z,2.22
2023-08-11T06:14:00.522Z,2.80
2023-08-11T06:16:46.192Z,2.58
2023-08-11T06:19:31.646Z,2.72
2023-08-11T06:22:17.337Z,3.08
2023-08-11T06:25:02.775Z,2.38
2023-08-11T06:27:48.087Z,2.55
2023-08-11T06:30:33.812Z,2.70
2023-08-11T06:33:19.438Z,2.60
2023-08-11T06:36:05.128Z,2.60
2023-08-11T06:38:50.951Z,3.05
2023-08-11T06:41:36.150Z,3.25
2023-08-11T06:44:21.466Z,3.17
2023-08-11T06:47:07.124Z,2.90
2023-08-11T06:49:53.053Z,3.13
2023-08-11T06:52:39.269Z,2.88
2023-08-11T06:55:25.053Z,2.83
2023-08-11T06:58:10.734Z,2.63
2023-08-11T07:00:56.324Z,2.88
2023-08-11T07:03:42.953Z,2.75
2023-08-11T07:06:27.918Z,4.00
2023-08-11T07:09:13.442Z,4.13
2023-08-11T07:11:59.656Z,2.58
2023-08-11T07:14:45.894Z,2.95
2023-08-11T07:17:31.844Z,3.20
2023-08-11T07:20:17.203Z,3.00
2023-08-11T07:23:02.716Z,3.10
2023-08-11T07:25:48.402Z,3.33
2023-08-11T07:28:33.987Z,2.83
2023-08-11T07:31:19.541Z,2.85
2023-08-11T07:34:04.999Z,3.47
2023-08-11T07:36:50.771Z,2.80
2023-08-11T07:39:36.146Z,2.80
2023-08-11T07:42:21.699Z,2.65
2023-08-11T07:45:07.937Z,2.65
2023-08-11T07:47:53.162Z,2.65
2023-08-11T07:50:39.025Z,2.78
2023-08-11T07:53:24.431Z,2.95
2023-08-11T07:56:09.734Z,2.40
2023-08-11T07:58:55.288Z,2.42
2023-08-11T08:01:40.803Z,2.50
2023-08-11T08:04:26.255Z,2.22
2023-08-11T08:07:12.070Z,2.60
2023-08-11T08:09:57.687Z,2.42
2023-08-11T08:12:46.863Z,2.10
2023-08-11T08:15:32.549Z,1.88
2023-08-11T08:18:17.991Z,2.13
2023-08-11T08:21:03.596Z,2.42
2023-08-11T08:23:49.557Z,1.90
2023-08-11T08:26:36.374Z,2.20
2023-08-11T08:29:22.145Z,2.10
2023-08-11T08:32:07.582Z,1.92
2023-08-11T08:34:53.288Z,2.00
2023-08-11T08:37:38.766Z,1.98
2023-08-11T08:40:24.236Z,2.30
2023-08-11T08:43:10.008Z,1.92
2023-08-11T08:45:57.747Z,1.98
2023-08-11T08:49:18.584Z,2.08
2023-08-11T08:52:06.182Z,2.20
2023-08-11T08:54:52.416Z,1.90
2023-08-11T08:57:38.107Z,1.98
2023-08-11T09:00:24.190Z,2.15
2023-08-11T09:03:09.593Z,2.05
2023-08-11T09:05:55.390Z,2.08
2023-08-11T09:08:41.065Z,2.10
2023-08-11T09:11:27.464Z,2.33
2023-08-11T09:14:12.838Z,2.28
2023-08-11T09:17:01.047Z,2.05
2023-08-11T09:19:52.152Z,2.10
2023-08-11T09:22:39.342Z,2.10
2023-08-11T09:25:25.134Z,2.30
2023-08-11T09:28:10.530Z,2.50
2023-08-11T09:30:56.296Z,2.05
2023-08-11T09:33:42.264Z,2.10
2023-08-11T09:36:27.495Z,1.90
2023-08-11T09:39:13.269Z,1.90
2023-08-11T09:41:58.834Z,1.98
2023-08-11T09:44:45.153Z,2.15
2023-08-11T09:47:30.462Z,2.10
2023-08-11T09:50:16.349Z,2.10
2023-08-11T09:53:05.631Z,2.17
2023-08-11T09:55:55.504Z,1.92
2023-08-11T09:58:42.128Z,2.60
2023-08-11T10:01:29.912Z,1.95
2023-08-11T10:04:38.478Z,2.33
2023-08-11T10:07:38.330Z,2.47
2023-08-11T10:10:24.654Z,2.47
2023-08-11T10:13:15.431Z,1.88
2023-08-11T10:16:01.554Z,2.17
2023-08-11T10:18:47.517Z,2.03
2023-08-11T10:21:33.066Z,2.30
2023-08-11T10:24:19.812Z,2.28
2023-08-11T10:27:08.814Z,2.00
2023-08-11T10:29:56.292Z,1.73
2023-08-11T10:32:41.939Z,1.75
2023-08-11T10:35:33.884Z,2.05
2023-08-11T10:38:30.482Z,1.80
2023-08-11T10:41:19.493Z,1.83
2023-08-11T10:44:05.863Z,2.08
2023-08-11T10:46:52.908Z,1.90
2023-08-11T10:49:42.943Z,1.83
2023-08-11T10:52:30.816Z,2.10
2023-08-11T10:55:16.444Z,1.70
2023-08-11T10:58:17.920Z,1.70
2023-08-11T11:01:03.114Z,2.13
2023-08-11T11:03:50.664Z,2.03
2023-08-11T11:06:37.245Z,1.77
2023-08-11T11:09:23.131Z,1.80
2023-08-11T11:12:09.443Z,1.85
2023-08-11T11:14:55.058Z,1.70
2023-08-11T11:17:40.682Z,1.70
2023-08-11T11:20:27.014Z,1.80
2023-08-11T11:23:12.776Z,1.85
2023-08-11T11:25:57.961Z,1.92
2023-08-11T11:28:43.444Z,1.60
2023-08-11T11:31:32.186Z,1.52
2023-08-11T11:34:18.693Z,1.75
2023-08-11T11:37:04.574Z,1.70
2023-08-11T11:39:49.659Z,2.20
2023-08-11T11:42:39.096Z,1.70
2023-08-11T11:45:25.226Z,1.52
2023-08-11T11:48:10.981Z,1.60
2023-08-11T11:50:57.365Z,1.60
2023-08-11T11:53:44.627Z,1.70
2023-08-11T11:56:31.759Z,1.70
2023-08-11T11:59:18.151Z,2.10
2023-08-11T12:02:04.965Z,2.10
2023-08-11T12:04:52.107Z,1.88
2023-08-11T12:07:40.572Z,1.50
2023-08-11T12:10:33.980Z,2.00
2023-08-11T12:13:19.306Z,1.70
2023-08-11T12:16:06.144Z,1.85
2023-08-11T12:18:51.356Z,1.90
2023-08-11T12:21:37.355Z,1.60
2023-08-11T12:24:23.938Z,1.70
2023-08-11T12:27:10.169Z,1.63
2023-08-11T12:29:55.969Z,1.80
2023-08-11T12:32:41.737Z,1.58
2023-08-11T12:35:26.845Z,1.75
2023-08-11T12:38:13.873Z,1.38
2023-08-11T12:40:59.267Z,1.80
2023-08-11T12:43:44.633Z,1.60
2023-08-11T12:46:30.426Z,1.58
2023-08-11T12:49:16.128Z,1.55
2023-08-11T12:52:01.648Z,1.40
2023-08-11T12:54:47.158Z,1.70
2023-08-11T12:57:33.306Z,1.70
2023-08-11T13:00:21.756Z,1.50
2023-08-11T13:03:07.378Z,1.50
2023-08-11T13:05:52.736Z,1.42
2023-08-11T13:08:38.140Z,1.48
2023-08-11T13:11:24.058Z,1.90
2023-08-11T13:14:09.499Z,1.55
2023-08-11T13:16:55.114Z,1.40
2023-08-11T13:19:40.853Z,1.42
2023-08-11T13:22:26.103Z,1.48
2023-08-11T13:25:12.252Z,1.40
2023-08-11T13:27:57.832Z,1.27
2023-08-11T13:30:43.739Z,1.40
2023-08-11T13:33:29.301Z,1.45
2023-08-11T13:36:16.787Z,1.20
2023-08-11T13:39:02.259Z,1.35
2023-08-11T13:41:48.483Z,1.20
2023-08-11T13:44:33.742Z,1.40
2023-08-11T13:47:19.459Z,1.50
2023-08-11T13:50:05.286Z,1.38
2023-08-11T13:52:50.893Z,1.50
2023-08-11T13:55:36.793Z,1.10
2023-08-11T13:58:22.111Z,1.20
2023-08-11T14:01:07.741Z,1.15
2023-08-11T14:03:53.232Z,1.60
2023-08-11T14:06:38.889Z,1.42
2023-08-11T14:09:24.429Z,1.67
2023-08-11T14:12:10.110Z,1.63
2023-08-11T14:14:55.532Z,1.30
2023-08-11T14:17:41.380Z,1.00
2023-08-11T14:20:26.794Z,1.10
2023-08-11T14:23:12.291Z,1.20
2023-08-11T14:25:57.699Z,1.40
2023-08-11T14:28:43.316Z,1.35
2023-08-11T14:31:28.724Z,1.30
2023-08-11T14:34:14.253Z,1.35
2023-08-11T14:36:59.772Z,1.13
2023-08-11T14:39:46.234Z,1.10
2023-08-11T14:42:31.387Z,0.98
2023-08-11T14:45:16.985Z,1.20
2023-08-11T14:48:03.499Z,1.10
2023-08-11T14:50:48.938Z,1.10
2023-08-11T14:53:34.423Z,1.00
2023-08-11T14:56:20.007Z,1.27
2023-08-11T14:59:05.490Z,0.90
2023-08-11T15:01:52.342Z,1.00
2023-08-11T15:04:37.981Z,1.20
2023-08-11T15:07:23.128Z,1.00
2023-08-11T15:10:09.161Z,1.25
2023-08-11T15:12:54.272Z,1.08
2023-08-11T15:15:39.699Z,1.13
2023-08-11T15:18:30.573Z,1.23
2023-08-11T15:21:15.796Z,1.00
2023-08-11T15:24:01.380Z,1.00
2023-08-11T15:26:47.035Z,0.90
2023-08-11T15:29:32.497Z,0.95
2023-08-11T15:32:17.916Z,0.85
2023-08-11T15:35:04.175Z,1.17
2023-08-11T15:37:49.398Z,1.10
2023-08-11T15:40:34.878Z,1.60
2023-08-11T15:43:20.447Z,1.20
2023-08-11T15:46:06.090Z,1.33
2023-08-11T15:48:54.542Z,1.25
2023-08-11T15:51:39.720Z,1.20
2023-08-11T15:54:25.302Z,1.10
2023-08-11T15:57:10.669Z,1.30
2023-08-11T15:59:56.206Z,1.35
2023-08-11T16:02:41.750Z,1.10
2023-08-11T16:05:27.126Z,1.33
2023-08-11T16:08:12.532Z,1.35
2023-08-11T16:10:57.976Z,1.17
2023-08-11T16:13:43.578Z,1.63
2023-08-11T16:16:29.055Z,1.98
2023-08-11T16:19:15.923Z,1.60
2023-08-11T16:22:01.586Z,1.13
2023-08-11T16:24:46.972Z,1.50
2023-08-11T16:27:34.341Z,1.35
2023-08-11T16:30:19.884Z,1.10
2023-08-11T16:33:05.414Z,1.30
2023-08-11T16:35:50.976Z,1.20
2023-08-11T16:38:36.182Z,1.40
2023-08-11T16:41:21.964Z,1.20
2023-08-11T16:44:09.576Z,1.10
2023-08-11T16:46:55.077Z,1.17
2023-08-11T16:49:40.326Z,1.25
2023-08-11T16:52:25.699Z,1.20
2023-08-11T16:55:11.190Z,1.08
2023-08-11T16:57:56.680Z,1.20
2023-08-11T17:00:43.277Z,1.20
2023-08-11T17:03:28.984Z,1.40
2023-08-11T17:06:20.029Z,1.02
2023-08-11T17:09:07.180Z,1.00
2023-08-11T17:11:52.619Z,1.98
2023-08-11T17:14:38.003Z,2.00
2023-08-11T17:17:23.372Z,2.63
2023-08-11T17:20:11.286Z,1.80
2023-08-11T17:22:56.484Z,2.08
2023-08-11T17:25:41.929Z,1.75
2023-08-11T17:28:27.569Z,1.40
2023-08-11T17:31:15.238Z,1.30
2023-08-11T17:34:00.647Z,1.40
2023-08-11T17:36:46.075Z,1.50
2023-08-11T17:39:32.044Z,1.35
2023-08-11T17:42:17.580Z,1.25
2023-08-11T17:45:03.464Z,1.25
2023-08-11T17:47:48.944Z,1.20
2023-08-11T17:50:35.205Z,1.40
2023-08-11T17:53:21.660Z,1.10
2023-08-11T17:56:07.119Z,1.23
2023-08-11T17:58:53.180Z,1.23
2023-08-11T18:01:38.870Z,1.40
2023-08-11T18:04:24.576Z,1.20
2023-08-11T18:07:10.306Z,1.35
2023-08-11T18:09:55.870Z,1.23
2023-08-11T18:12:41.388Z,1.35
2023-08-11T18:15:26.759Z,1.50
2023-08-11T18:18:12.252Z,1.52
2023-08-11T18:21:02.029Z,1.70
2023-08-11T18:23:47.856Z,1.52
2023-08-11T18:26:35.818Z,1.60
2023-08-11T18:29:21.417Z,1.52
2023-08-11T18:32:07.032Z,1.40
2023-08-11T18:34:52.588Z,1.40
2023-08-11T18:37:38.017Z,1.35
2023-08-11T18:40:23.487Z,1.60
2023-08-11T18:43:08.963Z,1.30
2023-08-11T18:45:54.329Z,1.50
2023-08-11T18:48:39.781Z,1.33
2023-08-11T18:51:25.311Z,1.63
2023-08-11T18:54:10.958Z,1.60
2023-08-11T18:56:56.301Z,1.25
2023-08-11T18:59:41.749Z,1.33
2023-08-11T19:02:27.258Z,1.88
2023-08-11T19:05:12.972Z,1.50
2023-08-11T19:07:58.212Z,1.65
2023-08-11T19:10:44.922Z,2.22
2023-08-11T19:13:30.643Z,1.48
2023-08-11T19:16:16.211Z,1.33
2023-08-11T19:19:01.370Z,1.48
2023-08-11T19:21:47.050Z,1.52
2023-08-11T19:24:32.613Z,1.58
2023-08-11T19:27:19.188Z,1.23
2023-08-11T19:30:06.339Z,1.80
2023-08-11T19:32:52.083Z,1.83
2023-08-11T19:35:37.458Z,1.60
2023-08-11T19:38:23.059Z,1.65
2023-08-11T19:41:10.270Z,1.50
2023-08-11T19:43:57.424Z,1.85
2023-08-11T19:46:42.977Z,1.85
2023-08-11T19:49:28.379Z,1.70
2023-08-11T19:52:14.232Z,1.70
2023-08-11T19:54:59.781Z,1.70
2023-08-11T19:57:45.723Z,2.50
2023-08-11T20:00:32.511Z,2.20
2023-08-11T20:03:18.008Z,1.88
2023-08-11T20:06:03.800Z,1.95
2023-08-11T20:08:49.182Z,1.50
2023-08-11T20:11:35.183Z,1.50
2023-08-11T20:14:20.809Z,1.90
2023-08-11T20:17:06.302Z,1.70
2023-08-11T20:19:51.638Z,2.72
2023-08-11T20:22:37.250Z,1.80
2023-08-11T20:25:22.738Z,2.15
2023-08-11T20:28:10.355Z,1.95
2023-08-11T20:31:01.280Z,1.80
2023-08-11T20:33:46.682Z,2.58
2023-08-11T20:36:32.201Z,2.00
2023-08-11T20:39:17.742Z,1.90
2023-08-11T20:42:03.634Z,1.95
2023-08-11T20:44:52.824Z,1.80
2023-08-11T20:47:38.181Z,2.00
2023-08-11T20:50:23.868Z,1.73
2023-08-11T20:53:09.369Z,1.65
2023-08-11T20:55:54.879Z,2.47
2023-08-11T20:58:40.485Z,2.08
2023-08-11T21:01:26.023Z,2.20
2023-08-11T21:04:12.129Z,2.20
2023-08-11T21:06:57.823Z,2.17
2023-08-11T21:09:43.491Z,2.03
2023-08-11T21:12:28.962Z,1.90
2023-08-11T21:15:14.711Z,1.80
2023-08-11T21:17:59.964Z,2.20
2023-08-11T21:20:45.386Z,2.00
2023-08-11T21:23:31.040Z,2.00
2023-08-11T21:26:16.389Z,1.80
2023-08-11T21:29:01.872Z,1.98
2023-08-11T21:31:47.459Z,2.83
2023-08-11T21:34:33.859Z,2.13
2023-08-11T21:37:19.851Z,1.88
2023-08-11T21:40:05.891Z,2.30
2023-08-11T21:42:51.169Z,2.58
2023-08-11T21:45:36.685Z,2.72
2023-08-11T21:48:22.066Z,2.10
2023-08-11T21:51:07.654Z,2.42
2023-08-11T21:53:53.082Z,2.30
2023-08-11T21:56:38.545Z,2.78
2023-08-11T21:59:23.990Z,2.55
2023-08-11T22:02:10.057Z,2.72
2023-08-11T22:04:58.859Z,2.30
2023-08-11T22:07:44.285Z,2.85
2023-08-11T22:10:29.961Z,2.35
2023-08-11T22:13:15.601Z,2.42
2023-08-11T22:16:01.014Z,2.28
2023-08-11T22:18:46.572Z,2.30
2023-08-11T22:21:31.936Z,2.60
2023-08-11T22:24:21.577Z,2.70
2023-08-11T22:27:16.249Z,2.40
2023-08-11T22:30:01.604Z,2.63
2023-08-11T22:32:47.128Z,2.60
2023-08-11T22:35:33.095Z,2.92
2023-08-11T22:38:18.516Z,2.58
2023-08-11T22:41:04.021Z,2.30
2023-08-11T22:43:49.533Z,2.45
2023-08-11T22:46:35.056Z,2.53
2023-08-11T22:49:20.464Z,2.25
2023-08-11T22:52:06.297Z,2.33
2023-08-11T22:54:51.454Z,2.60
2023-08-11T22:57:37.008Z,2.60
2023-08-11T23:00:22.520Z,2.50
2023-08-11T23:03:08.237Z,3.15
2023-08-11T23:05:53.422Z,2.78
2023-08-11T23:08:38.765Z,2.50
2023-08-11T23:11:24.293Z,2.63
2023-08-11T23:14:09.813Z,2.78
2023-08-11T23:16:55.204Z,3.33
2023-08-11T23:19:40.639Z,2.60
2023-08-11T23:22:26.383Z,3.40
2023-08-11T23:25:12.074Z,2.83
2023-08-11T23:27:57.545Z,2.65
2023-08-11T23:30:43.162Z,2.70
2023-08-11T23:33:28.566Z,2.67
2023-08-11T23:36:14.081Z,2.35
2023-08-11T23:38:59.311Z,3.22
2023-08-11T23:41:44.984Z,2.80
2023-08-11T23:44:30.507Z,2.95
2023-08-11T23:47:16.218Z,2.40
2023-08-11T23:50:02.026Z,2.45
2023-08-11T23:52:47.261Z,2.70
2023-08-11T23:55:32.711Z,2.35
2023-08-11T23:58:18.080Z,2.85
